Time;durP1;ratioP1;P1;durP2;ratioP2;P2;SDS_P1;SDS_P2;PMS_P1;PMS_P2;Temp;Humidity;BMP_temperature;BMP_pressure;BME280_temperature;BME280_humidity;BME280_pressure;Samples;Min_cycle;Max_cycle;Signal;HPM_P1;HPM_P2
2023/08/20 00:02:13;;;;;;;8.95;7.10;;;;;;;22.75;46.88;95224.59;5009307;28;20120;-86
2023/08/20 00:04:40;;;;;;;10.68;6.32;;;;;;;22.78;46.58;95226.41;4990932;28;20109;-85
2023/08/20 00:07:06;;;;;;;10.52;6.45;;;;;;;22.80;46.78;95231.50;4989670;28;20026;-88
2023/08/20 00:09:32;;;;;;;13.38;6.40;;;;;;;22.81;46.64;95230.22;4991003;28;20048;-85
2023/08/20 00:11:58;;;;;;;10.77;6.25;;;;;;;22.80;46.58;95220.28;5007575;28;20030;-86
2023/08/20 00:14:58;;;;;;;6.95;5.45;;;;;;;22.88;46.67;95218.53;5008317;28;20108;-86
2023/08/20 00:17:27;;;;;;;6.78;5.43;;;;;;;22.87;46.35;95216.19;5008340;28;20076;-85
2023/08/20 00:19:55;;;;;;;7.90;5.90;;;;;;;22.88;46.55;95218.53;4989676;28;20408;-85
2023/08/20 00:22:25;;;;;;;8.95;5.95;;;;;;;22.91;46.50;95223.09;5008725;28;20042;-85
2023/08/20 00:24:54;;;;;;;6.82;5.43;;;;;;;22.86;46.51;95223.06;4989344;28;20498;-86
2023/08/20 00:27:20;;;;;;;6.70;5.65;;;;;;;22.88;46.60;95223.34;5008114;28;20018;-86
2023/08/20 00:29:45;;;;;;;6.60;5.50;;;;;;;22.94;46.73;95233.31;5007336;28;20036;-86
2023/08/20 00:32:11;;;;;;;8.32;5.50;;;;;;;22.92;46.51;95227.44;4989785;28;20417;-85
2023/08/20 00:34:36;;;;;;;6.15;5.55;;;;;;;22.93;46.58;95223.34;4990093;28;20100;-85
2023/08/20 00:37:03;;;;;;;6.50;5.70;;;;;;;22.99;46.66;95223.34;4989051;28;20488;-86
2023/08/20 00:39:29;;;;;;;6.72;5.70;;;;;;;22.96;46.31;95224.38;5007970;28;20037;-86
2023/08/20 00:41:54;;;;;;;10.13;5.57;;;;;;;22.98;46.52;95228.19;4988653;28;20041;-85
2023/08/20 00:44:19;;;;;;;9.10;5.90;;;;;;;22.95;46.35;95223.63;5007634;28;20563;-86
2023/08/20 00:46:45;;;;;;;6.00;5.22;;;;;;;22.92;46.34;95221.81;4989114;28;20061;-86
2023/08/20 00:49:11;;;;;;;11.68;6.38;;;;;;;23.00;46.31;95225.66;4989540;28;20498;-86
2023/08/20 00:51:36;;;;;;;7.10;6.32;;;;;;;23.01;46.14;95227.16;5007287;28;20026;-86
2023/08/20 00:54:03;;;;;;;6.90;5.40;;;;;;;23.05;46.28;95235.31;4989043;28;20037;-86
2023/08/20 00:56:28;;;;;;;8.25;6.80;;;;;;;23.01;45.94;95232.00;5008215;28;20033;-86
2023/08/20 00:58:54;;;;;;;7.85;6.10;;;;;;;22.92;46.11;95224.63;5006070;28;20026;-86
2023/08/20 01:01:21;;;;;;;7.40;5.75;;;;;;;22.95;46.11;95226.41;4990046;28;20030;-85
2023/08/20 01:03:46;;;;;;;7.25;6.47;;;;;;;22.96;46.36;95225.13;4988263;28;20041;-86
2023/08/20 01:06:40;;;;;;;7.93;5.68;;;;;;;22.97;46.32;95226.66;4973505;28;20026;-85
2023/08/20 01:09:06;;;;;;;;;;;;;;;22.94;46.38;95222.09;4990004;28;20444;-86
2023/08/20 01:11:37;;;;;;;8.68;5.60;;;;;;;22.93;46.36;95214.16;4988639;28;19953;-85
2023/08/20 01:14:14;;;;;;;7.78;5.85;;;;;;;22.91;46.09;95228.69;4989756;28;20033;-86
2023/08/20 01:16:39;;;;;;;6.75;5.97;;;;;;;22.92;46.08;95221.06;4988198;28;20026;-86
2023/08/20 01:19:05;;;;;;;7.63;6.03;;;;;;;22.89;46.35;95213.69;5007933;28;20454;-86
2023/08/20 01:21:38;;;;;;;10.18;6.45;;;;;;;22.83;46.35;95222.06;5000262;28;20033;-84
2023/08/20 01:24:11;;;;;;;;;;;;;;;22.89;46.52;95216.50;4998478;28;20101;-84
2023/08/20 01:27:10;;;;;;;8.35;5.63;;;;;;;22.87;46.57;95216.19;4990848;28;20312;-85
2023/08/20 01:29:36;;;;;;;7.15;6.03;;;;;;;22.84;46.33;95209.59;4988341;28;20445;-85
2023/08/20 01:32:02;;;;;;;9.10;6.30;;;;;;;22.82;46.56;95209.31;4989347;28;20026;-85
2023/08/20 01:34:28;;;;;;;7.65;6.80;;;;;;;22.83;46.52;95210.09;4988882;28;20448;-86
2023/08/20 01:36:54;;;;;;;8.27;7.35;;;;;;;22.91;46.64;95211.88;4999049;28;20033;-85
2023/08/20 01:39:19;;;;;;;7.20;6.25;;;;;;;22.92;46.54;95215.44;5008947;28;20489;-86
2023/08/20 01:41:45;;;;;;;7.47;6.70;;;;;;;22.85;46.28;95205.50;5007588;28;20033;-85
2023/08/20 01:44:11;;;;;;;7.88;5.78;;;;;;;22.85;46.29;95201.94;4990218;28;20389;-86
2023/08/20 01:46:36;;;;;;;10.15;6.78;;;;;;;22.97;46.40;95201.44;5006673;28;20452;-86
2023/08/20 01:49:02;;;;;;;10.75;6.88;;;;;;;22.93;46.15;95197.34;4990064;28;20030;-84
2023/08/20 01:51:28;;;;;;;8.18;6.70;;;;;;;22.91;46.40;95186.66;4988557;28;20026;-85
2023/08/20 01:53:53;;;;;;;9.10;6.28;;;;;;;22.87;46.40;95188.94;5010355;28;20496;-84
2023/08/20 01:56:18;;;;;;;8.30;6.88;;;;;;;22.83;46.48;95170.88;5010826;28;20021;-86
2023/08/20 01:58:44;;;;;;;9.73;6.32;;;;;;;22.76;46.53;95175.69;5009901;28;20100;-86
2023/08/20 02:01:09;;;;;;;9.70;7.10;;;;;;;22.89;46.54;95180.81;4990427;28;20104;-85
2023/08/20 02:03:37;;;;;;;7.80;6.03;;;;;;;22.89;46.68;95180.06;5006437;28;20050;-85
2023/08/20 02:06:02;;;;;;;7.82;7.03;;;;;;;22.84;46.78;95181.56;5007368;28;20026;-86
2023/08/20 02:08:28;;;;;;;8.35;6.47;;;;;;;22.84;46.76;95186.41;5006302;28;20084;-87
2023/08/20 02:11:03;;;;;;;8.70;6.72;;;;;;;22.83;46.58;95179.28;5006686;28;20512;-85
2023/08/20 02:13:29;;;;;;;6.88;6.05;;;;;;;22.83;46.70;95182.84;4972180;28;20033;-85
2023/08/20 02:16:02;;;;;;;7.82;6.93;;;;;;;22.83;46.55;95177.22;5005750;28;20099;-86
2023/08/20 02:18:28;;;;;;;9.80;6.45;;;;;;;22.85;46.61;95171.88;4989039;28;20026;-85
2023/08/20 02:20:53;;;;;;;10.32;7.78;;;;;;;22.87;46.32;95177.75;5005034;28;20033;-85
2023/08/20 02:23:20;;;;;;;9.45;6.97;;;;;;;22.85;46.54;95176.72;5006640;28;20456;-85
2023/08/20 02:25:47;;;;;;;8.45;6.95;;;;;;;22.82;46.69;95175.69;4989478;28;20018;-85
2023/08/20 02:28:12;;;;;;;9.18;6.65;;;;;;;22.84;46.59;95178.75;5014169;28;20077;-86
2023/08/20 02:30:45;;;;;;;11.00;7.32;;;;;;;22.83;46.84;95174.44;5016996;28;20022;-85
2023/08/20 02:33:10;;;;;;;;;;;;;;;22.87;46.51;95183.34;5018504;28;20038;-86
2023/08/20 02:35:37;;;;;;;8.95;6.97;;;;;;;22.87;46.78;95183.34;5018756;28;20039;-86
2023/08/20 02:38:02;;;;;;;9.68;6.97;;;;;;;22.88;46.70;95187.69;5000822;28;20038;-86
2023/08/20 02:40:28;;;;;;;10.35;6.97;;;;;;;22.87;46.60;95190.97;4994817;28;20056;-85
2023/08/20 02:42:53;;;;;;;7.95;6.53;;;;;;;22.85;47.03;95185.13;5011204;28;20026;-85
2023/08/20 02:45:19;;;;;;;8.55;6.75;;;;;;;22.89;46.99;95182.84;5010051;28;20108;-87
2023/08/20 02:47:44;;;;;;;7.72;6.85;;;;;;;22.92;46.88;95193.03;5009347;28;20030;-85
2023/08/20 02:50:09;;;;;;;8.93;6.57;;;;;;;22.89;47.22;95194.81;4992768;28;20467;-86
2023/08/20 02:52:35;;;;;;;11.77;7.22;;;;;;;22.91;46.80;95192.25;5009751;28;20508;-86
2023/08/20 02:55:00;;;;;;;8.38;7.18;;;;;;;22.89;46.75;95197.63;5009847;28;20088;-86
2023/08/20 02:57:26;;;;;;;11.70;7.90;;;;;;;22.88;47.21;95198.91;4993237;28;20484;-87
2023/08/20 02:59:51;;;;;;;9.57;7.03;;;;;;;22.88;47.30;95209.34;5018726;28;20026;-84
2023/08/20 03:02:17;;;;;;;8.43;7.07;;;;;;;22.85;47.37;95204.75;4993557;28;20455;-86
2023/08/20 03:04:42;;;;;;;11.43;7.03;;;;;;;22.84;47.38;95206.78;4991393;28;20069;-86
2023/08/20 03:07:08;;;;;;;8.40;6.90;;;;;;;22.79;47.75;95204.75;4992226;28;20034;-85
2023/08/20 03:09:33;;;;;;;8.70;6.57;;;;;;;22.76;47.80;95211.34;4991471;28;20034;-86
2023/08/20 03:11:59;;;;;;;7.45;6.50;;;;;;;22.72;47.89;95210.88;5009308;28;20099;-86
2023/08/20 03:14:24;;;;;;;9.57;6.20;;;;;;;22.62;48.31;95201.19;4995515;28;20022;-85
2023/08/20 03:16:49;;;;;;;9.20;6.43;;;;;;;22.56;47.99;95212.41;5016049;28;20018;-85
2023/08/20 03:19:16;;;;;;;8.30;6.25;;;;;;;22.55;48.41;95210.88;4992523;28;20108;-85
2023/08/20 03:21:41;;;;;;;7.65;6.30;;;;;;;22.47;48.40;95207.81;4981255;28;20049;-85
2023/08/20 03:24:08;;;;;;;9.40;6.53;;;;;;;22.44;48.52;95206.03;5002716;28;20075;-84
2023/08/20 03:26:33;;;;;;;8.95;7.60;;;;;;;22.37;48.66;95208.59;4975116;28;20033;-87
2023/08/20 03:28:59;;;;;;;9.77;6.72;;;;;;;22.32;48.73;95200.94;4991419;28;20404;-84
2023/08/20 03:31:25;;;;;;;8.23;6.70;;;;;;;22.25;49.27;95202.97;4990760;28;20125;-86
2023/08/20 03:33:50;;;;;;;13.30;6.93;;;;;;;22.23;49.21;95202.69;5008502;28;20037;-85
2023/08/20 03:36:16;;;;;;;10.07;6.72;;;;;;;22.17;49.28;95193.53;5008710;28;20441;-86
2023/08/20 03:38:42;;;;;;;9.23;6.70;;;;;;;22.10;49.57;95194.03;5007290;28;20100;-86
2023/08/20 03:41:07;;;;;;;10.43;6.32;;;;;;;22.08;49.66;95192.97;4990847;28;20447;-85
2023/08/20 03:43:33;;;;;;;7.05;5.78;;;;;;;22.02;50.02;95192.97;5007271;28;20029;-85
2023/08/20 03:45:58;;;;;;;9.82;7.05;;;;;;;22.00;49.85;95193.47;4991827;28;20436;-86
2023/08/20 03:48:24;;;;;;;8.98;7.47;;;;;;;21.98;50.35;95198.06;5007808;28;20026;-85
2023/08/20 03:50:49;;;;;;;6.72;6.03;;;;;;;21.96;50.38;95186.59;4991015;28;20168;-86
2023/08/20 03:53:15;;;;;;;8.93;6.88;;;;;;;21.96;50.51;95190.19;4990367;28;20037;-87
2023/08/20 03:55:40;;;;;;;7.95;6.50;;;;;;;21.93;50.29;95190.41;5007985;28;20452;-86
2023/08/20 03:58:06;;;;;;;9.23;7.13;;;;;;;21.90;50.67;95194.97;5008664;28;20026;-86
2023/08/20 04:00:32;;;;;;;7.43;6.72;;;;;;;21.89;50.44;95185.06;4989649;28;20530;-86
2023/08/20 04:02:57;;;;;;;10.65;6.53;;;;;;;21.80;50.61;95171.31;5008570;28;20419;-85
2023/08/20 04:05:22;;;;;;;8.05;6.57;;;;;;;21.85;50.75;95178.97;4988184;28;20022;-85
2023/08/20 04:07:48;;;;;;;8.32;6.80;;;;;;;21.87;50.51;95176.41;5008528;28;20014;-85
2023/08/20 04:10:13;;;;;;;8.40;6.70;;;;;;;21.87;50.93;95182.00;5007436;28;20423;-83
2023/08/20 04:12:39;;;;;;;8.82;6.85;;;;;;;21.86;51.06;95180.47;4989907;28;20476;-84
2023/08/20 04:15:04;;;;;;;14.40;7.43;;;;;;;21.84;50.72;95185.03;5008216;28;20480;-84
2023/08/20 04:17:30;;;;;;;10.70;6.93;;;;;;;21.87;50.73;95186.84;4989458;28;20022;-83
2023/08/20 04:19:55;;;;;;;9.48;6.22;;;;;;;21.87;50.99;95184.81;5008440;28;20037;-84
2023/08/20 04:22:20;;;;;;;7.68;6.80;;;;;;;21.88;50.80;95191.94;4988634;28;20496;-84
2023/08/20 04:24:46;;;;;;;10.80;6.63;;;;;;;21.91;50.77;95188.13;4990812;28;20076;-84
2023/08/20 04:27:11;;;;;;;9.43;6.53;;;;;;;21.89;50.70;95187.09;4988871;28;20097;-84
2023/08/20 04:29:37;;;;;;;8.00;7.20;;;;;;;21.90;51.11;95186.56;4989661;28;20082;-83
2023/08/20 04:32:02;;;;;;;11.20;7.35;;;;;;;21.90;50.84;95191.41;4973190;28;20455;-83
2023/08/20 04:34:27;;;;;;;10.30;7.18;;;;;;;21.92;51.06;95192.44;5007355;28;20018;-83
2023/08/20 04:36:53;;;;;;;10.98;7.30;;;;;;;21.94;51.02;95198.31;4992274;28;20315;-84
2023/08/20 04:39:19;;;;;;;10.75;7.97;;;;;;;21.95;51.10;95199.06;5015707;28;20492;-85
2023/08/20 04:41:44;;;;;;;9.10;7.63;;;;;;;21.97;50.78;95202.91;4991436;28;20033;-84
2023/08/20 04:44:09;;;;;;;8.25;6.88;;;;;;;21.93;51.02;95193.97;4989330;28;20026;-82
2023/08/20 04:46:35;;;;;;;7.85;6.72;;;;;;;22.00;50.90;95203.91;5007794;28;20022;-83
2023/08/20 04:49:00;;;;;;;10.32;7.13;;;;;;;21.98;50.79;95198.81;5006562;28;20137;-84
2023/08/20 04:51:26;;;;;;;10.52;7.35;;;;;;;21.98;50.59;95187.63;4989288;28;20029;-83
2023/08/20 04:53:51;;;;;;;9.73;7.40;;;;;;;22.04;50.42;95198.06;5014550;28;20029;-87
2023/08/20 04:56:16;;;;;;;10.13;7.00;;;;;;;22.06;50.54;95201.88;4993291;28;20022;-84
2023/08/20 04:58:42;;;;;;;9.43;7.30;;;;;;;22.07;50.68;95208.25;4990108;28;20045;-84
2023/08/20 05:01:08;;;;;;;9.10;7.10;;;;;;;22.06;50.34;95195.53;4988694;28;20026;-84
2023/08/20 05:03:34;;;;;;;12.27;7.10;;;;;;;22.13;50.62;95209.81;4989814;28;20046;-84
2023/08/20 05:05:59;;;;;;;9.50;6.65;;;;;;;22.17;50.50;95209.56;4988356;28;20033;-83
2023/08/20 05:08:25;;;;;;;8.00;6.70;;;;;;;22.19;50.10;95204.22;5007701;28;20056;-83
2023/08/20 05:10:51;;;;;;;7.65;5.55;;;;;;;22.27;50.11;95203.22;5006238;28;20107;-84
2023/08/20 05:13:17;;;;;;;7.15;5.90;;;;;;;22.29;50.00;95216.69;4989439;28;20069;-85
2023/08/20 05:15:42;;;;;;;5.82;5.22;;;;;;;22.30;50.44;95215.44;4988999;28;20041;-84
2023/08/20 05:18:08;;;;;;;6.20;5.60;;;;;;;22.29;50.14;95201.94;5006134;28;20116;-84
2023/08/20 05:20:33;;;;;;;5.82;5.22;;;;;;;22.32;50.26;95209.34;4989225;28;20385;-84
2023/08/20 05:22:59;;;;;;;6.20;5.30;;;;;;;22.34;50.43;95206.78;5014477;28;20550;-84
2023/08/20 05:25:24;;;;;;;6.45;5.22;;;;;;;22.41;50.02;95215.44;5010877;28;20073;-84
2023/08/20 05:27:50;;;;;;;6.32;5.13;;;;;;;22.50;49.82;95217.25;4988638;28;20106;-85
2023/08/20 05:30:15;;;;;;;6.65;5.95;;;;;;;22.56;49.80;95214.44;4989596;28;20056;-83
2023/08/20 05:32:41;;;;;;;9.00;5.93;;;;;;;22.57;49.65;95221.56;4988877;28;20103;-82
2023/08/20 05:35:06;;;;;;;9.25;5.70;;;;;;;22.59;49.62;95221.81;4972446;28;20072;-84
2023/08/20 05:37:32;;;;;;;7.75;5.70;;;;;;;22.59;49.63;95219.78;4989276;28;20109;-84
2023/08/20 05:39:57;;;;;;;6.50;5.70;;;;;;;22.66;49.71;95221.31;5006089;28;20029;-85
2023/08/20 05:42:23;;;;;;;7.00;5.88;;;;;;;22.70;49.69;95221.81;5008197;28;20407;-83
2023/08/20 05:44:48;;;;;;;9.15;6.18;;;;;;;22.75;49.73;95224.59;5006231;28;20076;-85
2023/08/20 05:47:13;;;;;;;8.18;6.25;;;;;;;22.80;49.64;95226.66;4989948;28;20052;-83
2023/08/20 05:49:39;;;;;;;7.70;6.13;;;;;;;22.90;49.45;95227.19;5006058;28;20022;-84
2023/08/20 05:52:04;;;;;;;7.28;6.25;;;;;;;22.89;49.36;95224.91;5007056;28;20491;-84
2023/08/20 05:54:30;;;;;;;11.00;7.10;;;;;;;22.99;49.23;95226.91;5009664;28;20030;-82
2023/08/20 05:56:57;;;;;;;11.10;6.00;;;;;;;22.94;49.10;95219.28;4993086;28;20053;-85
2023/08/20 05:59:23;;;;;;;8.35;6.18;;;;;;;23.03;49.00;95221.81;4991723;28;20041;-84
2023/08/20 06:01:48;;;;;;;9.30;6.72;;;;;;;23.02;48.92;95209.06;4987967;28;20030;-83
2023/08/20 06:04:14;;;;;;;11.25;6.30;;;;;;;23.08;49.07;95222.31;5010764;28;20101;-84
2023/08/20 06:06:40;;;;;;;7.35;6.15;;;;;;;23.18;49.16;95220.78;4992200;28;20053;-83
2023/08/20 06:09:05;;;;;;;6.93;5.55;;;;;;;23.20;49.10;95229.41;4993192;28;20030;-85
2023/08/20 06:11:31;;;;;;;8.55;6.32;;;;;;;23.21;49.23;95228.91;5009886;28;20231;-84
2023/08/20 06:13:56;;;;;;;8.85;6.20;;;;;;;23.33;48.81;95226.81;5009969;28;20101;-83
2023/08/20 06:16:22;;;;;;;11.57;6.07;;;;;;;23.30;48.97;95222.25;5010656;28;20377;-84
2023/08/20 06:18:47;;;;;;;8.40;6.68;;;;;;;23.43;48.89;95230.88;5020434;28;20423;-85
2023/08/20 06:21:13;;;;;;;7.95;6.60;;;;;;;23.52;48.75;95233.41;5012088;28;20036;-84
2023/08/20 06:23:38;;;;;;;11.02;6.50;;;;;;;23.62;48.81;95233.09;5010376;28;20423;-84
2023/08/20 06:26:03;;;;;;;10.00;6.55;;;;;;;23.68;48.58;95226.22;4993288;28;20030;-84
2023/08/20 06:28:29;;;;;;;8.10;6.57;;;;;;;23.79;48.62;95231.03;4991673;28;20022;-84
2023/08/20 06:30:54;;;;;;;8.85;6.68;;;;;;;23.90;48.23;95228.16;4992263;28;20499;-85
2023/08/20 06:33:20;;;;;;;10.52;7.95;;;;;;;24.02;48.01;95235.25;5013417;28;20037;-85
2023/08/20 06:35:45;;;;;;;10.63;6.47;;;;;;;24.00;47.98;95217.41;5017314;28;20038;-85
2023/08/20 06:38:10;;;;;;;9.48;6.65;;;;;;;24.19;47.90;95232.34;4993509;28;20415;-85
2023/08/20 06:40:36;;;;;;;12.07;6.38;;;;;;;24.25;47.92;95233.06;4991448;28;20038;-84
2023/08/20 06:43:01;;;;;;;9.65;6.30;;;;;;;24.31;47.71;95230.97;5010498;28;20415;-84
2023/08/20 06:45:27;;;;;;;7.72;6.20;;;;;;;24.44;47.55;95233.25;5008527;28;20043;-84
2023/08/20 06:47:52;;;;;;;10.68;6.90;;;;;;;24.54;47.06;95233.66;4992735;28;20109;-84
2023/08/20 06:50:17;;;;;;;7.43;6.35;;;;;;;24.66;46.96;95228.72;5008854;28;20136;-84
2023/08/20 06:52:43;;;;;;;10.85;6.13;;;;;;;24.79;46.64;95228.88;4992509;28;20026;-84
2023/08/20 06:55:08;;;;;;;8.75;6.20;;;;;;;24.92;46.40;95237.44;5009942;28;20037;-84
2023/08/20 06:57:34;;;;;;;7.18;5.95;;;;;;;25.00;46.08;95226.38;4991669;28;20026;-84
2023/08/20 06:59:59;;;;;;;8.88;7.05;;;;;;;25.12;45.96;95237.03;4992520;28;20032;-84
2023/08/20 07:02:25;;;;;;;8.75;6.20;;;;;;;25.27;45.05;95233.06;5019990;28;20126;-83
2023/08/20 07:04:50;;;;;;;10.25;6.90;;;;;;;25.40;45.21;95238.78;5024840;28;20021;-84
2023/08/20 07:07:16;;;;;;;9.80;6.80;;;;;;;25.53;44.53;95235.34;4987391;28;20033;-84
2023/08/20 07:09:41;;;;;;;10.68;6.93;;;;;;;25.58;44.29;95232.47;5011238;28;20021;-85
2023/08/20 07:12:07;;;;;;;9.48;7.25;;;;;;;25.65;44.39;95229.03;5011410;28;20085;-85
2023/08/20 07:14:32;;;;;;;7.72;6.82;;;;;;;25.83;44.31;95235.25;4993691;28;20105;-84
2023/08/20 07:16:59;;;;;;;7.35;6.55;;;;;;;25.93;43.70;95234.34;4976659;28;20026;-84
2023/08/20 07:19:25;;;;;;;7.55;6.75;;;;;;;26.01;42.96;95222.47;4991027;28;20030;-84
2023/08/20 07:21:50;;;;;;;9.77;6.78;;;;;;;26.20;42.45;95229.63;4978308;28;20018;-84
2023/08/20 07:24:16;;;;;;;7.07;5.97;;;;;;;26.37;42.16;95231.44;5000024;28;20026;-84
2023/08/20 07:26:42;;;;;;;11.50;6.15;;;;;;;26.45;41.23;95221.88;4992999;28;20109;-85
2023/08/20 07:29:07;;;;;;;8.35;5.65;;;;;;;26.56;41.56;95226.59;5007809;28;20038;-85
2023/08/20 07:31:33;;;;;;;9.43;5.40;;;;;;;26.70;40.99;95230.97;4992063;28;20032;-84
2023/08/20 07:34:02;;;;;;;8.85;5.38;;;;;;;26.88;40.59;95226.56;4975109;28;20455;-85
2023/08/20 07:36:28;;;;;;;9.07;5.13;;;;;;;27.03;40.02;95217.59;4991156;28;20403;-84
2023/08/20 07:38:54;;;;;;;8.30;5.35;;;;;;;27.20;39.90;95225.78;5008906;28;20034;-84
2023/08/20 07:41:20;;;;;;;9.95;5.63;;;;;;;27.38;39.51;95229.81;4973833;28;20120;-82
2023/08/20 07:43:46;;;;;;;7.68;5.40;;;;;;;27.60;38.18;95223.00;4991562;28;20026;-84
2023/08/20 07:46:12;;;;;;;7.50;5.25;;;;;;;27.78;37.96;95234.19;4989626;28;20030;-84
2023/08/20 07:48:38;;;;;;;5.75;5.15;;;;;;;27.90;37.72;95229.06;4991116;28;20022;-84
2023/08/20 07:51:04;;;;;;;6.53;4.97;;;;;;;28.00;37.13;95224.50;4990335;28;20032;-83
2023/08/20 07:53:30;;;;;;;5.60;4.80;;;;;;;27.99;36.61;95239.16;5008772;28;20022;-83
2023/08/20 07:55:56;;;;;;;6.72;5.07;;;;;;;27.87;36.93;95227.34;4991238;28;20026;-85
2023/08/20 07:58:22;;;;;;;11.93;5.88;;;;;;;27.96;37.46;95238.19;5011649;28;20105;-85
2023/08/20 08:00:47;;;;;;;12.90;5.70;;;;;;;28.13;37.39;95225.78;4998560;28;20403;-84
2023/08/20 08:03:14;;;;;;;5.97;4.68;;;;;;;28.23;36.89;95224.75;4989840;28;20042;-85
2023/08/20 08:05:40;;;;;;;5.57;4.93;;;;;;;28.37;36.09;95230.41;4991496;28;20029;-84
2023/08/20 08:08:06;;;;;;;8.57;4.60;;;;;;;28.38;35.82;95223.44;4989808;28;20048;-85
2023/08/20 08:10:31;;;;;;;5.40;4.32;;;;;;;28.46;36.07;95222.22;4991173;28;20030;-83
2023/08/20 08:12:56;;;;;;;7.72;5.13;;;;;;;28.47;35.94;95222.97;4989825;28;20022;-84
2023/08/20 08:15:22;;;;;;;8.82;4.82;;;;;;;28.60;35.79;95222.91;4999082;28;20093;-86
2023/08/20 08:17:47;;;;;;;10.57;4.82;;;;;;;28.69;35.93;95225.28;4992423;28;20022;-85
2023/08/20 08:20:12;;;;;;;6.50;4.90;;;;;;;28.87;35.15;95217.91;4989226;28;20498;-84
2023/08/20 08:22:38;;;;;;;5.78;4.60;;;;;;;28.89;34.67;95225.81;5008613;28;20054;-84
2023/08/20 08:25:04;;;;;;;6.78;4.72;;;;;;;29.05;34.74;95221.84;4988731;28;20026;-85
2023/08/20 08:27:29;;;;;;;5.78;4.63;;;;;;;29.18;33.74;95230.25;5008216;28;20115;-85
2023/08/20 08:29:55;;;;;;;4.60;3.95;;;;;;;29.17;33.25;95219.47;5006406;28;20034;-86
2023/08/20 08:32:20;;;;;;;6.80;4.13;;;;;;;29.21;33.92;95223.50;5007725;28;20034;-86
2023/08/20 08:34:45;;;;;;;6.72;4.10;;;;;;;29.26;33.83;95224.66;4989799;28;20072;-87
2023/08/20 08:37:11;;;;;;;7.80;4.60;;;;;;;29.30;34.05;95208.81;5006628;28;20033;-84
2023/08/20 08:39:36;;;;;;;5.68;4.53;;;;;;;29.47;33.77;95219.69;5007954;28;20105;-84
2023/08/20 08:42:04;;;;;;;5.88;3.90;;;;;;;29.63;32.72;95232.66;4988540;28;20030;-84
2023/08/20 08:44:32;;;;;;;8.52;4.32;;;;;;;29.64;31.41;95213.59;4990202;28;20108;-84
2023/08/20 08:46:57;;;;;;;5.13;3.78;;;;;;;29.67;31.92;95225.91;4988677;28;20022;-85
2023/08/20 08:49:22;;;;;;;5.32;4.32;;;;;;;29.68;31.92;95227.41;5007183;28;20500;-84
2023/08/20 08:51:48;;;;;;;5.93;4.35;;;;;;;29.76;31.30;95223.28;4988996;28;20477;-85
2023/08/20 08:54:14;;;;;;;4.47;3.80;;;;;;;29.81;31.50;95219.53;4972856;28;20033;-86
2023/08/20 08:56:40;;;;;;;6.68;3.97;;;;;;;30.03;31.42;95225.88;4989438;28;20046;-86
2023/08/20 08:59:05;;;;;;;6.70;3.72;;;;;;;30.15;30.47;95230.69;4988885;28;20022;-85
2023/08/20 09:01:31;;;;;;;5.88;3.55;;;;;;;30.19;29.97;95227.50;5007843;28;20081;-85
2023/08/20 09:03:57;;;;;;;5.25;3.83;;;;;;;30.29;30.22;95228.47;4988217;28;20141;-85
2023/08/20 09:06:22;;;;;;;6.03;3.90;;;;;;;30.47;30.75;95223.06;4989915;28;20117;-85
2023/08/20 09:08:47;;;;;;;6.72;3.92;;;;;;;30.66;29.89;95227.06;5006288;28;20030;-85
2023/08/20 09:11:13;;;;;;;4.10;3.55;;;;;;;30.83;29.90;95218.03;5006876;28;20077;-84
2023/08/20 09:13:41;;;;;;;7.43;4.28;;;;;;;30.99;29.65;95226.56;5006834;28;20483;-84
2023/08/20 09:16:11;;;;;;;6.38;3.80;;;;;;;30.88;29.41;95202.91;4988845;28;20686;-84
2023/08/20 09:18:44;;;;;;;4.40;3.97;;;;;;;31.17;29.55;95211.25;5007208;28;20030;-85
2023/08/20 09:21:12;;;;;;;4.20;3.38;;;;;;;31.27;28.20;95222.81;5012405;28;20126;-85
2023/08/20 09:23:38;;;;;;;6.32;3.67;;;;;;;31.41;29.33;95221.28;5015363;28;20525;-85
2023/08/20 09:26:05;;;;;;;4.15;3.55;;;;;;;31.61;28.96;95219.56;4989122;28;20084;-85
2023/08/20 09:28:41;;;;;;;6.10;3.45;;;;;;;31.83;27.72;95224.47;4957247;28;20157;-84
2023/08/20 09:31:07;;;;;;;6.25;3.85;;;;;;;31.89;27.82;95227.84;5006666;28;20026;-85
2023/08/20 09:33:32;;;;;;;4.63;3.80;;;;;;;31.98;27.09;95217.97;5006049;28;20499;-84
2023/08/20 09:35:58;;;;;;;6.43;3.85;;;;;;;32.17;27.79;95223.97;5007313;28;20022;-85
2023/08/20 09:38:24;;;;;;;5.07;3.38;;;;;;;32.40;27.43;95218.19;5005101;28;20104;-85
2023/08/20 09:40:52;;;;;;;8.18;3.47;;;;;;;32.58;26.44;95218.31;5009821;28;20040;-86
2023/08/20 09:43:18;;;;;;;3.70;3.20;;;;;;;32.80;26.25;95217.38;4989018;28;20022;-85
2023/08/20 09:45:43;;;;;;;5.70;3.20;;;;;;;32.81;25.93;95195.38;4990916;28;20022;-85
2023/08/20 09:48:10;;;;;;;4.55;3.10;;;;;;;33.10;24.76;95222.16;4990607;28;20058;-85
2023/08/20 09:50:38;;;;;;;5.82;3.00;;;;;;;33.30;24.53;95208.88;4989891;28;20030;-85
2023/08/20 09:53:31;;;;;;;7.68;2.90;;;;;;;33.46;24.54;95210.25;4989624;28;20033;-85
2023/08/20 09:56:03;;;;;;;4.00;2.90;;;;;;;33.59;23.16;95209.19;5004346;28;20049;-86
2023/08/20 09:58:31;;;;;;;3.85;2.97;;;;;;;33.69;23.39;95215.00;4989041;28;20520;-86
2023/08/20 10:00:56;;;;;;;3.03;2.58;;;;;;;33.77;23.52;95210.69;5005835;28;20029;-85
2023/08/20 10:03:22;;;;;;;4.50;2.90;;;;;;;33.98;23.12;95215.28;4988286;28;20493;-86
2023/08/20 10:05:49;;;;;;;4.68;2.95;;;;;;;34.16;23.02;95213.16;5006245;28;20033;-87
2023/08/20 10:08:15;;;;;;;2.95;2.30;;;;;;;34.33;22.46;95208.19;4992097;28;20045;-86
2023/08/20 10:10:41;;;;;;;6.53;2.70;;;;;;;34.46;22.31;95220.59;5010570;28;20045;-86
2023/08/20 10:13:07;;;;;;;5.40;2.70;;;;;;;34.50;21.98;95213.13;4990099;28;20034;-86
2023/08/20 10:15:33;;;;;;;5.10;3.00;;;;;;;34.59;21.43;95214.53;4989633;28;20026;-85
2023/08/20 10:18:00;;;;;;;3.53;2.65;;;;;;;34.77;22.03;95226.66;5006090;28;20053;-85
2023/08/20 10:20:29;;;;;;;4.07;2.92;;;;;;;34.88;21.43;95216.78;4988612;28;20408;-85
2023/08/20 10:23:00;;;;;;;4.60;2.88;;;;;;;35.03;21.74;95211.59;4988498;28;20037;-86
2023/08/20 10:25:26;;;;;;;3.00;2.53;;;;;;;35.18;21.67;95207.00;4987956;28;20049;-85
2023/08/20 10:27:52;;;;;;;5.43;2.42;;;;;;;35.30;21.61;95211.56;5006422;28;20060;-85
2023/08/20 10:30:21;;;;;;;4.20;2.60;;;;;;;35.41;21.39;95213.09;4987216;28;20420;-85
2023/08/20 10:32:53;;;;;;;5.32;2.92;;;;;;;35.55;21.00;95205.63;5006388;28;20542;-86
2023/08/20 10:35:23;;;;;;;3.08;2.58;;;;;;;35.73;21.16;95211.22;4987460;28;20040;-85
2023/08/20 10:38:07;;;;;;;4.43;2.67;;;;;;;35.77;20.33;95206.56;4988182;28;20030;-85
2023/08/20 10:40:55;;;;;;;2.67;1.98;;;;;;;35.90;20.64;95191.84;5005806;28;20041;-85
2023/08/20 10:43:34;;;;;;;4.82;2.50;;;;;;;35.97;20.20;95203.75;5004912;28;20471;-85
2023/08/20 10:46:19;;;;;;;4.28;2.67;;;;;;;36.05;20.22;95195.75;5007328;28;20124;-85
2023/08/20 10:48:56;;;;;;;3.78;2.55;;;;;;;36.01;19.96;95181.91;5006732;28;20014;-86
2023/08/20 10:51:34;;;;;;;3.33;2.20;;;;;;;36.08;19.95;95191.72;4991649;28;20025;-85
2023/08/20 10:54:05;;;;;;;4.45;2.00;;;;;;;36.23;20.39;95182.03;5009863;28;20026;-85
2023/08/20 10:56:40;;;;;;;3.78;2.50;;;;;;;36.44;20.02;95187.91;5008109;28;20034;-85
2023/08/20 10:59:13;;;;;;;4.90;2.60;;;;;;;36.69;20.34;95187.53;4992474;28;20026;-87
2023/08/20 11:01:38;;;;;;;4.22;3.00;;;;;;;36.65;18.90;95187.28;4991016;28;20109;-86
2023/08/20 11:04:07;;;;;;;4.50;3.25;;;;;;;36.83;19.31;95182.84;4991507;28;20187;-87
2023/08/20 11:06:32;;;;;;;6.22;3.72;;;;;;;36.99;19.01;95173.91;4992011;28;20022;-86
2023/08/20 11:08:58;;;;;;;3.33;2.90;;;;;;;37.11;18.64;95169.78;4990547;28;20083;-85
2023/08/20 11:11:24;;;;;;;6.22;2.78;;;;;;;37.38;18.58;95177.34;5009676;28;20065;-86
2023/08/20 11:13:49;;;;;;;5.20;2.40;;;;;;;37.46;18.29;95166.44;5008052;28;20037;-86
2023/08/20 11:16:15;;;;;;;4.13;2.90;;;;;;;37.48;18.44;95161.59;4992024;28;20372;-86
2023/08/20 11:18:41;;;;;;;4.20;2.50;;;;;;;37.54;18.23;95169.84;5013125;28;20037;-86
2023/08/20 11:21:07;;;;;;;4.22;2.40;;;;;;;37.81;18.07;95168.78;5018850;28;20036;-87
2023/08/20 11:23:33;;;;;;;3.53;2.28;;;;;;;38.19;17.91;95168.44;4992291;28;20645;-86
2023/08/20 11:25:58;;;;;;;5.15;2.97;;;;;;;38.70;17.18;95165.25;4991347;28;20022;-85
2023/08/20 11:28:25;;;;;;;6.22;2.90;;;;;;;39.08;17.09;95172.69;5009377;28;20033;-87
2023/08/20 11:30:51;;;;;;;3.97;2.50;;;;;;;39.44;16.48;95168.44;5007698;28;20033;-87